Ware, Iowa
Current Conditions -  °F | °C
As of 10:15 AM on Friday 24 Oct 2014 (Local Time) from KAXA Reporting Station
Haze Haze  
Wind Chill: 57°   Ceiling: 300
Heat Index: 57°   Visibility: 1mi
Dew Point: 57°   Wind: 14mph
Humidity: 100%   Direction: 210°SSW
Pressure: 29.9"   Gusts: NA
Location:  42.8425°N, 94.7375°W
Report Text: KAXA 241515Z AUTO 21012KT 1SM BR OVC003 14/14 A2990 RMK AO2
Loading
Personal Weather Stations






























Interactive Weather Map
Tropical Storm Tracking
New forecast layout! Learn more

10-Day Weather Forecast

Advertisements
Track Severe Weather on mobile